sensor_id;sensor_type;location;lat;lon;timestamp;P1;durP1;ratioP1;P2;durP2;ratioP2
27796;SDS011;15177;50.844;4.412;2022-12-16T00:01:12;52.23;;;22.43;;
27796;SDS011;15177;50.844;4.412;2022-12-16T00:03:40;43.60;;;21.73;;
27796;SDS011;15177;50.844;4.412;2022-12-16T00:06:10;40.50;;;20.70;;
27796;SDS011;15177;50.844;4.412;2022-12-16T00:08:38;40.93;;;21.07;;
27796;SDS011;15177;50.844;4.412;2022-12-16T00:11:04;45.00;;;22.47;;
27796;SDS011;15177;50.844;4.412;2022-12-16T00:13:32;44.77;;;20.67;;
27796;SDS011;15177;50.844;4.412;2022-12-16T00:16:02;37.40;;;20.17;;
27796;SDS011;15177;50.844;4.412;2022-12-16T00:18:29;44.97;;;21.17;;
27796;SDS011;15177;50.844;4.412;2022-12-16T00:20:55;43.73;;;20.30;;
27796;SDS011;15177;50.844;4.412;2022-12-16T00:23:21;44.43;;;20.97;;
27796;SDS011;15177;50.844;4.412;2022-12-16T00:25:47;43.83;;;19.97;;
27796;SDS011;15177;50.844;4.412;2022-12-16T00:28:13;37.33;;;18.33;;
27796;SDS011;15177;50.844;4.412;2022-12-16T00:30:41;39.50;;;19.77;;
27796;SDS011;15177;50.844;4.412;2022-12-16T00:33:07;37.53;;;19.37;;
27796;SDS011;15177;50.844;4.412;2022-12-16T00:35:33;44.07;;;18.97;;
27796;SDS011;15177;50.844;4.412;2022-12-16T00:37:58;40.40;;;18.70;;
27796;SDS011;15177;50.844;4.412;2022-12-16T00:40:24;39.00;;;19.40;;
27796;SDS011;15177;50.844;4.412;2022-12-16T00:42:50;41.10;;;20.43;;
27796;SDS011;15177;50.844;4.412;2022-12-16T00:45:16;41.50;;;19.23;;
27796;SDS011;15177;50.844;4.412;2022-12-16T00:47:42;37.53;;;18.63;;
27796;SDS011;15177;50.844;4.412;2022-12-16T00:50:08;48.00;;;20.10;;
27796;SDS011;15177;50.844;4.412;2022-12-16T00:52:35;44.60;;;19.40;;
27796;SDS011;15177;50.844;4.412;2022-12-16T00:55:01;45.13;;;18.90;;
27796;SDS011;15177;50.844;4.412;2022-12-16T00:57:27;39.63;;;18.83;;
27796;SDS011;15177;50.844;4.412;2022-12-16T00:59:53;33.43;;;17.30;;
27796;SDS011;15177;50.844;4.412;2022-12-16T01:02:18;32.07;;;17.50;;
27796;SDS011;15177;50.844;4.412;2022-12-16T01:04:45;38.43;;;17.97;;
27796;SDS011;15177;50.844;4.412;2022-12-16T01:07:11;41.07;;;19.00;;
27796;SDS011;15177;50.844;4.412;2022-12-16T01:09:36;35.77;;;18.57;;
27796;SDS011;15177;50.844;4.412;2022-12-16T01:12:02;40.53;;;19.40;;
27796;SDS011;15177;50.844;4.412;2022-12-16T01:14:28;36.67;;;18.73;;
27796;SDS011;15177;50.844;4.412;2022-12-16T01:16:54;41.13;;;19.87;;
27796;SDS011;15177;50.844;4.412;2022-12-16T01:19:20;37.00;;;18.37;;
27796;SDS011;15177;50.844;4.412;2022-12-16T01:21:46;42.10;;;19.50;;
27796;SDS011;15177;50.844;4.412;2022-12-16T01:24:12;35.13;;;18.17;;
27796;SDS011;15177;50.844;4.412;2022-12-16T01:26:37;34.10;;;18.93;;
27796;SDS011;15177;50.844;4.412;2022-12-16T01:29:03;37.83;;;18.33;;
27796;SDS011;15177;50.844;4.412;2022-12-16T01:31:31;38.37;;;17.73;;
27796;SDS011;15177;50.844;4.412;2022-12-16T01:33:56;40.17;;;19.07;;
27796;SDS011;15177;50.844;4.412;2022-12-16T01:36:23;35.63;;;19.27;;
27796;SDS011;15177;50.844;4.412;2022-12-16T01:38:50;35.43;;;17.97;;
27796;SDS011;15177;50.844;4.412;2022-12-16T01:41:16;39.03;;;19.70;;
27796;SDS011;15177;50.844;4.412;2022-12-16T01:43:43;47.83;;;20.10;;
27796;SDS011;15177;50.844;4.412;2022-12-16T01:48:51;42.63;;;20.40;;
27796;SDS011;15177;50.844;4.412;2022-12-16T01:51:36;39.90;;;21.03;;
27796;SDS011;15177;50.844;4.412;2022-12-16T01:56:50;38.23;;;20.60;;
27796;SDS011;15177;50.844;4.412;2022-12-16T01:59:19;34.97;;;20.27;;
27796;SDS011;15177;50.844;4.412;2022-12-16T02:01:48;44.30;;;21.17;;
27796;SDS011;15177;50.844;4.412;2022-12-16T02:04:14;42.13;;;20.87;;
27796;SDS011;15177;50.844;4.412;2022-12-16T02:06:40;47.47;;;21.07;;
27796;SDS011;15177;50.844;4.412;2022-12-16T02:09:06;42.77;;;21.57;;
27796;SDS011;15177;50.844;4.412;2022-12-16T02:11:48;51.80;;;20.77;;
27796;SDS011;15177;50.844;4.412;2022-12-16T02:31:43;42.30;;;21.00;;
27796;SDS011;15177;50.844;4.412;2022-12-16T02:40:32;48.23;;;21.13;;
27796;SDS011;15177;50.844;4.412;2022-12-16T02:43:06;35.67;;;19.93;;
27796;SDS011;15177;50.844;4.412;2022-12-16T02:45:40;38.00;;;19.67;;
27796;SDS011;15177;50.844;4.412;2022-12-16T02:48:07;45.87;;;22.33;;
27796;SDS011;15177;50.844;4.412;2022-12-16T02:50:50;40.33;;;21.10;;
27796;SDS011;15177;50.844;4.412;2022-12-16T02:53:19;42.60;;;19.93;;
27796;SDS011;15177;50.844;4.412;2022-12-16T03:03:54;42.63;;;21.27;;
27796;SDS011;15177;50.844;4.412;2022-12-16T03:06:28;41.60;;;21.43;;
27796;SDS011;15177;50.844;4.412;2022-12-16T03:08:56;42.33;;;21.07;;
27796;SDS011;15177;50.844;4.412;2022-12-16T03:11:26;42.10;;;21.27;;
27796;SDS011;15177;50.844;4.412;2022-12-16T03:13:54;48.37;;;21.43;;
27796;SDS011;15177;50.844;4.412;2022-12-16T03:16:22;50.53;;;23.63;;
27796;SDS011;15177;50.844;4.412;2022-12-16T03:18:55;46.47;;;22.43;;
27796;SDS011;15177;50.844;4.412;2022-12-16T03:21:27;44.33;;;23.00;;
27796;SDS011;15177;50.844;4.412;2022-12-16T03:24:02;48.83;;;22.47;;
27796;SDS011;15177;50.844;4.412;2022-12-16T03:26:33;59.30;;;23.60;;
27796;SDS011;15177;50.844;4.412;2022-12-16T03:29:06;47.37;;;22.37;;
27796;SDS011;15177;50.844;4.412;2022-12-16T03:34:16;41.97;;;21.47;;
27796;SDS011;15177;50.844;4.412;2022-12-16T03:36:55;39.23;;;20.57;;
27796;SDS011;15177;50.844;4.412;2022-12-16T03:39:24;44.07;;;20.77;;
27796;SDS011;15177;50.844;4.412;2022-12-16T03:41:51;45.97;;;22.63;;
27796;SDS011;15177;50.844;4.412;2022-12-16T03:44:18;40.13;;;22.33;;
27796;SDS011;15177;50.844;4.412;2022-12-16T03:46:49;44.23;;;22.30;;
27796;SDS011;15177;50.844;4.412;2022-12-16T03:49:15;45.13;;;22.73;;
27796;SDS011;15177;50.844;4.412;2022-12-16T03:51:41;62.07;;;25.27;;
27796;SDS011;15177;50.844;4.412;2022-12-16T03:54:06;56.57;;;23.90;;
27796;SDS011;15177;50.844;4.412;2022-12-16T03:56:32;51.70;;;25.13;;
27796;SDS011;15177;50.844;4.412;2022-12-16T03:58:58;56.17;;;23.50;;
27796;SDS011;15177;50.844;4.412;2022-12-16T04:01:24;57.53;;;23.90;;
27796;SDS011;15177;50.844;4.412;2022-12-16T04:03:50;59.43;;;25.87;;
27796;SDS011;15177;50.844;4.412;2022-12-16T04:06:15;48.47;;;22.43;;
27796;SDS011;15177;50.844;4.412;2022-12-16T04:08:43;61.77;;;24.30;;
27796;SDS011;15177;50.844;4.412;2022-12-16T04:11:10;55.17;;;25.53;;
27796;SDS011;15177;50.844;4.412;2022-12-16T04:13:56;63.83;;;26.40;;
27796;SDS011;15177;50.844;4.412;2022-12-16T04:16:41;65.47;;;28.10;;
27796;SDS011;15177;50.844;4.412;2022-12-16T04:19:27;55.30;;;24.43;;
27796;SDS011;15177;50.844;4.412;2022-12-16T04:22:28;63.50;;;26.40;;
27796;SDS011;15177;50.844;4.412;2022-12-16T04:25:17;72.53;;;28.70;;
27796;SDS011;15177;50.844;4.412;2022-12-16T04:27:50;70.83;;;28.73;;
27796;SDS011;15177;50.844;4.412;2022-12-16T04:30:16;74.63;;;29.73;;
27796;SDS011;15177;50.844;4.412;2022-12-16T04:32:43;68.07;;;28.97;;
27796;SDS011;15177;50.844;4.412;2022-12-16T04:35:33;81.37;;;29.80;;
27796;SDS011;15177;50.844;4.412;2022-12-16T04:38:17;65.27;;;28.70;;
27796;SDS011;15177;50.844;4.412;2022-12-16T04:41:01;71.53;;;29.17;;
27796;SDS011;15177;50.844;4.412;2022-12-16T04:43:46;74.37;;;29.80;;
27796;SDS011;15177;50.844;4.412;2022-12-16T04:46:31;70.30;;;31.13;;
27796;SDS011;15177;50.844;4.412;2022-12-16T04:49:15;65.70;;;28.20;;
27796;SDS011;15177;50.844;4.412;2022-12-16T04:51:59;66.77;;;28.83;;
27796;SDS011;15177;50.844;4.412;2022-12-16T04:54:43;71.90;;;28.43;;
27796;SDS011;15177;50.844;4.412;2022-12-16T04:57:27;75.37;;;29.07;;
27796;SDS011;15177;50.844;4.412;2022-12-16T05:00:11;75.57;;;28.40;;
27796;SDS011;15177;50.844;4.412;2022-12-16T05:02:56;72.90;;;30.13;;
27796;SDS011;15177;50.844;4.412;2022-12-16T05:05:40;68.17;;;29.67;;
27796;SDS011;15177;50.844;4.412;2022-12-16T05:08:25;71.57;;;32.77;;
27796;SDS011;15177;50.844;4.412;2022-12-16T05:11:10;70.10;;;30.70;;
27796;SDS011;15177;50.844;4.412;2022-12-16T05:13:55;65.40;;;29.00;;
27796;SDS011;15177;50.844;4.412;2022-12-16T05:16:39;78.70;;;31.27;;
27796;SDS011;15177;50.844;4.412;2022-12-16T05:19:23;67.57;;;30.67;;
27796;SDS011;15177;50.844;4.412;2022-12-16T05:22:08;68.93;;;27.87;;
27796;SDS011;15177;50.844;4.412;2022-12-16T05:24:52;76.83;;;29.97;;
27796;SDS011;15177;50.844;4.412;2022-12-16T05:27:36;66.17;;;28.90;;
27796;SDS011;15177;50.844;4.412;2022-12-16T05:30:20;71.60;;;29.03;;
27796;SDS011;15177;50.844;4.412;2022-12-16T05:33:04;70.77;;;28.13;;
27796;SDS011;15177;50.844;4.412;2022-12-16T05:35:48;65.30;;;28.83;;
27796;SDS011;15177;50.844;4.412;2022-12-16T05:38:33;72.73;;;30.23;;
27796;SDS011;15177;50.844;4.412;2022-12-16T05:41:18;74.63;;;29.47;;
27796;SDS011;15177;50.844;4.412;2022-12-16T05:44:02;72.80;;;28.80;;
27796;SDS011;15177;50.844;4.412;2022-12-16T05:46:48;66.20;;;27.27;;
27796;SDS011;15177;50.844;4.412;2022-12-16T05:49:33;66.70;;;28.30;;
27796;SDS011;15177;50.844;4.412;2022-12-16T05:52:17;66.00;;;28.03;;
27796;SDS011;15177;50.844;4.412;2022-12-16T05:55:01;62.17;;;27.17;;
27796;SDS011;15177;50.844;4.412;2022-12-16T05:57:51;74.57;;;27.77;;
27796;SDS011;15177;50.844;4.412;2022-12-16T06:00:41;66.03;;;25.50;;
27796;SDS011;15177;50.844;4.412;2022-12-16T06:03:26;65.90;;;27.57;;
27796;SDS011;15177;50.844;4.412;2022-12-16T06:06:10;56.27;;;24.80;;
27796;SDS011;15177;50.844;4.412;2022-12-16T06:08:54;63.80;;;24.30;;
27796;SDS011;15177;50.844;4.412;2022-12-16T06:11:38;48.03;;;23.17;;
27796;SDS011;15177;50.844;4.412;2022-12-16T06:14:22;54.40;;;25.77;;
27796;SDS011;15177;50.844;4.412;2022-12-16T06:17:06;62.20;;;26.17;;
27796;SDS011;15177;50.844;4.412;2022-12-16T06:19:50;56.10;;;23.63;;
27796;SDS011;15177;50.844;4.412;2022-12-16T06:22:34;49.87;;;24.80;;
27796;SDS011;15177;50.844;4.412;2022-12-16T06:25:18;51.40;;;25.20;;
27796;SDS011;15177;50.844;4.412;2022-12-16T06:28:06;53.47;;;25.77;;
27796;SDS011;15177;50.844;4.412;2022-12-16T06:30:51;59.00;;;27.43;;
27796;SDS011;15177;50.844;4.412;2022-12-16T06:33:35;51.97;;;23.17;;
27796;SDS011;15177;50.844;4.412;2022-12-16T06:36:19;54.90;;;24.90;;
27796;SDS011;15177;50.844;4.412;2022-12-16T06:39:03;68.63;;;27.93;;
27796;SDS011;15177;50.844;4.412;2022-12-16T06:41:48;67.17;;;28.57;;
27796;SDS011;15177;50.844;4.412;2022-12-16T06:44:32;69.93;;;28.13;;
27796;SDS011;15177;50.844;4.412;2022-12-16T06:47:17;60.17;;;26.67;;
27796;SDS011;15177;50.844;4.412;2022-12-16T06:50:01;58.50;;;26.27;;
27796;SDS011;15177;50.844;4.412;2022-12-16T06:52:45;57.07;;;25.23;;
27796;SDS011;15177;50.844;4.412;2022-12-16T06:55:29;56.80;;;26.13;;
27796;SDS011;15177;50.844;4.412;2022-12-16T06:58:14;60.43;;;24.60;;
27796;SDS011;15177;50.844;4.412;2022-12-16T07:00:59;53.17;;;25.20;;
27796;SDS011;15177;50.844;4.412;2022-12-16T07:03:44;54.53;;;23.87;;
27796;SDS011;15177;50.844;4.412;2022-12-16T07:06:28;55.30;;;23.43;;
27796;SDS011;15177;50.844;4.412;2022-12-16T07:09:13;47.33;;;22.30;;
27796;SDS011;15177;50.844;4.412;2022-12-16T07:11:57;50.20;;;21.33;;
27796;SDS011;15177;50.844;4.412;2022-12-16T07:14:41;52.87;;;22.43;;
27796;SDS011;15177;50.844;4.412;2022-12-16T07:17:25;45.30;;;22.57;;
27796;SDS011;15177;50.844;4.412;2022-12-16T07:20:10;49.47;;;20.80;;
27796;SDS011;15177;50.844;4.412;2022-12-16T07:22:54;40.77;;;19.73;;
27796;SDS011;15177;50.844;4.412;2022-12-16T07:25:39;41.17;;;19.73;;
27796;SDS011;15177;50.844;4.412;2022-12-16T07:28:23;49.00;;;21.27;;
27796;SDS011;15177;50.844;4.412;2022-12-16T07:31:07;47.20;;;21.90;;
27796;SDS011;15177;50.844;4.412;2022-12-16T07:33:53;43.37;;;20.80;;
27796;SDS011;15177;50.844;4.412;2022-12-16T07:36:37;46.73;;;22.03;;
27796;SDS011;15177;50.844;4.412;2022-12-16T07:39:21;46.77;;;20.07;;
27796;SDS011;15177;50.844;4.412;2022-12-16T07:42:06;42.53;;;20.77;;
27796;SDS011;15177;50.844;4.412;2022-12-16T07:44:50;46.90;;;21.50;;
27796;SDS011;15177;50.844;4.412;2022-12-16T07:47:35;43.53;;;21.50;;
27796;SDS011;15177;50.844;4.412;2022-12-16T07:50:21;47.53;;;21.33;;
27796;SDS011;15177;50.844;4.412;2022-12-16T07:53:06;42.20;;;20.33;;
27796;SDS011;15177;50.844;4.412;2022-12-16T07:55:51;46.67;;;21.20;;
27796;SDS011;15177;50.844;4.412;2022-12-16T07:58:41;44.13;;;20.43;;
27796;SDS011;15177;50.844;4.412;2022-12-16T08:01:27;46.90;;;21.20;;
27796;SDS011;15177;50.844;4.412;2022-12-16T08:04:15;51.27;;;20.30;;
27796;SDS011;15177;50.844;4.412;2022-12-16T08:07:03;49.80;;;20.23;;
27796;SDS011;15177;50.844;4.412;2022-12-16T08:09:51;49.90;;;20.93;;
27796;SDS011;15177;50.844;4.412;2022-12-16T08:12:42;43.37;;;20.70;;
27796;SDS011;15177;50.844;4.412;2022-12-16T08:15:27;40.50;;;20.40;;
27796;SDS011;15177;50.844;4.412;2022-12-16T08:18:11;47.07;;;21.40;;
27796;SDS011;15177;50.844;4.412;2022-12-16T08:20:55;42.03;;;20.33;;
27796;SDS011;15177;50.844;4.412;2022-12-16T08:23:39;40.13;;;18.20;;
27796;SDS011;15177;50.844;4.412;2022-12-16T08:26:24;45.77;;;20.63;;
27796;SDS011;15177;50.844;4.412;2022-12-16T08:29:09;37.33;;;18.23;;
27796;SDS011;15177;50.844;4.412;2022-12-16T08:31:54;39.77;;;18.70;;
27796;SDS011;15177;50.844;4.412;2022-12-16T08:34:41;42.30;;;19.03;;
27796;SDS011;15177;50.844;4.412;2022-12-16T08:37:27;35.67;;;19.07;;
27796;SDS011;15177;50.844;4.412;2022-12-16T08:40:17;47.37;;;19.10;;
27796;SDS011;15177;50.844;4.412;2022-12-16T08:43:06;39.93;;;19.87;;
27796;SDS011;15177;50.844;4.412;2022-12-16T08:45:54;44.33;;;20.50;;
27796;SDS011;15177;50.844;4.412;2022-12-16T08:48:43;45.87;;;20.50;;
27796;SDS011;15177;50.844;4.412;2022-12-16T08:51:31;46.17;;;21.03;;
27796;SDS011;15177;50.844;4.412;2022-12-16T08:54:20;50.87;;;22.10;;
27796;SDS011;15177;50.844;4.412;2022-12-16T08:57:05;40.97;;;20.20;;
27796;SDS011;15177;50.844;4.412;2022-12-16T08:59:50;50.10;;;21.67;;
27796;SDS011;15177;50.844;4.412;2022-12-16T09:02:35;48.67;;;22.37;;
27796;SDS011;15177;50.844;4.412;2022-12-16T09:05:20;43.57;;;19.53;;
27796;SDS011;15177;50.844;4.412;2022-12-16T09:07:58;44.80;;;19.73;;
27796;SDS011;15177;50.844;4.412;2022-12-16T09:10:35;44.97;;;20.93;;
27796;SDS011;15177;50.844;4.412;2022-12-16T09:13:20;42.70;;;19.93;;
27796;SDS011;15177;50.844;4.412;2022-12-16T09:16:05;44.17;;;22.50;;
27796;SDS011;15177;50.844;4.412;2022-12-16T09:18:50;43.07;;;19.90;;
27796;SDS011;15177;50.844;4.412;2022-12-16T09:21:26;42.57;;;19.37;;
27796;SDS011;15177;50.844;4.412;2022-12-16T09:24:11;50.03;;;22.23;;
27796;SDS011;15177;50.844;4.412;2022-12-16T09:26:55;46.03;;;21.10;;
27796;SDS011;15177;50.844;4.412;2022-12-16T09:29:33;45.23;;;21.83;;
27796;SDS011;15177;50.844;4.412;2022-12-16T09:32:10;42.87;;;20.50;;
27796;SDS011;15177;50.844;4.412;2022-12-16T09:34:46;51.33;;;21.37;;
27796;SDS011;15177;50.844;4.412;2022-12-16T09:37:23;49.57;;;21.93;;
27796;SDS011;15177;50.844;4.412;2022-12-16T09:40:03;58.57;;;22.00;;
27796;SDS011;15177;50.844;4.412;2022-12-16T09:51:57;47.23;;;21.10;;
27796;SDS011;15177;50.844;4.412;2022-12-16T09:54:44;44.10;;;19.13;;
27796;SDS011;15177;50.844;4.412;2022-12-16T09:57:30;45.57;;;20.90;;
27796;SDS011;15177;50.844;4.412;2022-12-16T10:00:24;42.53;;;19.30;;
27796;SDS011;15177;50.844;4.412;2022-12-16T10:03:15;44.37;;;20.90;;
27796;SDS011;15177;50.844;4.412;2022-12-16T10:18:35;56.07;;;22.10;;
27796;SDS011;15177;50.844;4.412;2022-12-16T10:21:18;43.57;;;21.63;;
27796;SDS011;15177;50.844;4.412;2022-12-16T10:27:06;45.70;;;18.77;;
27796;SDS011;15177;50.844;4.412;2022-12-16T10:29:50;44.30;;;19.97;;
27796;SDS011;15177;50.844;4.412;2022-12-16T10:32:41;41.43;;;18.83;;
27796;SDS011;15177;50.844;4.412;2022-12-16T10:38:45;32.63;;;17.03;;
27796;SDS011;15177;50.844;4.412;2022-12-16T10:41:37;43.90;;;18.87;;
27796;SDS011;15177;50.844;4.412;2022-12-16T10:44:27;37.60;;;17.67;;
27796;SDS011;15177;50.844;4.412;2022-12-16T10:47:16;40.83;;;19.83;;
27796;SDS011;15177;50.844;4.412;2022-12-16T10:50:12;43.07;;;19.13;;
27796;SDS011;15177;50.844;4.412;2022-12-16T10:52:58;35.90;;;18.33;;
27796;SDS011;15177;50.844;4.412;2022-12-16T10:58:52;34.57;;;17.87;;
27796;SDS011;15177;50.844;4.412;2022-12-16T11:01:38;43.30;;;18.47;;
27796;SDS011;15177;50.844;4.412;2022-12-16T11:07:38;40.50;;;19.20;;
27796;SDS011;15177;50.844;4.412;2022-12-16T11:13:15;47.17;;;20.77;;
27796;SDS011;15177;50.844;4.412;2022-12-16T11:16:15;47.07;;;21.83;;
27796;SDS011;15177;50.844;4.412;2022-12-16T11:22:04;45.77;;;21.70;;
27796;SDS011;15177;50.844;4.412;2022-12-16T11:25:03;46.43;;;23.83;;
27796;SDS011;15177;50.844;4.412;2022-12-16T11:27:48;50.83;;;22.60;;
27796;SDS011;15177;50.844;4.412;2022-12-16T11:30:32;53.97;;;21.57;;
27796;SDS011;15177;50.844;4.412;2022-12-16T11:33:20;45.90;;;20.57;;
27796;SDS011;15177;50.844;4.412;2022-12-16T11:38:59;37.70;;;17.97;;
27796;SDS011;15177;50.844;4.412;2022-12-16T11:42:01;39.73;;;19.20;;
27796;SDS011;15177;50.844;4.412;2022-12-16T11:47:55;43.00;;;18.97;;
27796;SDS011;15177;50.844;4.412;2022-12-16T11:50:49;42.13;;;20.17;;
27796;SDS011;15177;50.844;4.412;2022-12-16T11:53:57;43.97;;;19.83;;
27796;SDS011;15177;50.844;4.412;2022-12-16T11:56:46;44.57;;;19.93;;
27796;SDS011;15177;50.844;4.412;2022-12-16T11:59:39;41.40;;;19.67;;
27796;SDS011;15177;50.844;4.412;2022-12-16T12:02:35;39.70;;;19.13;;
27796;SDS011;15177;50.844;4.412;2022-12-16T12:08:37;46.03;;;21.33;;
27796;SDS011;15177;50.844;4.412;2022-12-16T12:11:40;39.40;;;19.63;;
27796;SDS011;15177;50.844;4.412;2022-12-16T12:18:50;40.10;;;18.97;;
27796;SDS011;15177;50.844;4.412;2022-12-16T12:24:49;37.33;;;16.97;;
27796;SDS011;15177;50.844;4.412;2022-12-16T12:30:58;34.83;;;14.40;;
27796;SDS011;15177;50.844;4.412;2022-12-16T12:40:15;33.67;;;15.20;;
27796;SDS011;15177;50.844;4.412;2022-12-16T12:43:17;41.20;;;15.57;;
27796;SDS011;15177;50.844;4.412;2022-12-16T12:52:59;35.17;;;15.23;;
27796;SDS011;15177;50.844;4.412;2022-12-16T12:58:52;34.20;;;15.73;;
27796;SDS011;15177;50.844;4.412;2022-12-16T13:01:40;30.10;;;14.27;;
27796;SDS011;15177;50.844;4.412;2022-12-16T13:04:26;33.77;;;13.53;;
27796;SDS011;15177;50.844;4.412;2022-12-16T13:07:13;31.33;;;13.77;;
27796;SDS011;15177;50.844;4.412;2022-12-16T13:16:02;23.97;;;10.73;;
27796;SDS011;15177;50.844;4.412;2022-12-16T13:22:31;20.83;;;10.00;;
27796;SDS011;15177;50.844;4.412;2022-12-16T13:28:25;18.70;;;9.50;;
27796;SDS011;15177;50.844;4.412;2022-12-16T13:31:22;20.63;;;9.67;;
27796;SDS011;15177;50.844;4.412;2022-12-16T13:36:58;21.40;;;10.27;;
27796;SDS011;15177;50.844;4.412;2022-12-16T13:39:54;26.30;;;10.10;;
27796;SDS011;15177;50.844;4.412;2022-12-16T13:42:48;23.40;;;10.60;;
27796;SDS011;15177;50.844;4.412;2022-12-16T13:48:39;25.23;;;11.57;;
27796;SDS011;15177;50.844;4.412;2022-12-16T13:57:13;28.33;;;12.27;;
27796;SDS011;15177;50.844;4.412;2022-12-16T14:00:02;25.57;;;11.33;;
27796;SDS011;15177;50.844;4.412;2022-12-16T14:02:48;25.97;;;11.07;;
27796;SDS011;15177;50.844;4.412;2022-12-16T14:05:35;25.40;;;11.27;;
27796;SDS011;15177;50.844;4.412;2022-12-16T14:08:25;27.13;;;11.43;;
27796;SDS011;15177;50.844;4.412;2022-12-16T14:11:20;26.60;;;11.57;;
27796;SDS011;15177;50.844;4.412;2022-12-16T14:14:30;26.70;;;11.47;;
27796;SDS011;15177;50.844;4.412;2022-12-16T14:17:21;23.37;;;10.73;;
27796;SDS011;15177;50.844;4.412;2022-12-16T14:20:17;23.17;;;10.47;;
27796;SDS011;15177;50.844;4.412;2022-12-16T14:23:26;25.87;;;11.70;;
27796;SDS011;15177;50.844;4.412;2022-12-16T14:26:29;23.03;;;10.70;;
27796;SDS011;15177;50.844;4.412;2022-12-16T14:35:15;25.90;;;11.60;;
27796;SDS011;15177;50.844;4.412;2022-12-16T14:41:14;20.67;;;10.10;;
27796;SDS011;15177;50.844;4.412;2022-12-16T14:44:04;22.90;;;11.43;;
27796;SDS011;15177;50.844;4.412;2022-12-16T14:47:04;23.83;;;10.93;;
27796;SDS011;15177;50.844;4.412;2022-12-16T14:49:58;20.57;;;9.50;;
27796;SDS011;15177;50.844;4.412;2022-12-16T14:52:42;20.70;;;10.20;;
27796;SDS011;15177;50.844;4.412;2022-12-16T14:55:31;17.93;;;9.07;;
27796;SDS011;15177;50.844;4.412;2022-12-16T14:58:20;19.90;;;9.93;;
27796;SDS011;15177;50.844;4.412;2022-12-16T15:01:13;21.27;;;9.90;;
27796;SDS011;15177;50.844;4.412;2022-12-16T15:04:12;22.87;;;10.43;;
27796;SDS011;15177;50.844;4.412;2022-12-16T15:07:00;17.30;;;9.00;;
27796;SDS011;15177;50.844;4.412;2022-12-16T15:09:47;20.10;;;9.93;;
27796;SDS011;15177;50.844;4.412;2022-12-16T15:12:38;20.13;;;9.60;;
27796;SDS011;15177;50.844;4.412;2022-12-16T15:15:37;23.90;;;10.03;;
27796;SDS011;15177;50.844;4.412;2022-12-16T15:18:48;17.23;;;10.20;;
27796;SDS011;15177;50.844;4.412;2022-12-16T15:21:33;23.00;;;9.20;;
27796;SDS011;15177;50.844;4.412;2022-12-16T15:24:19;21.33;;;9.17;;
27796;SDS011;15177;50.844;4.412;2022-12-16T15:29:57;14.47;;;8.53;;
27796;SDS011;15177;50.844;4.412;2022-12-16T15:32:50;19.37;;;8.57;;
27796;SDS011;15177;50.844;4.412;2022-12-16T15:35:36;20.23;;;8.83;;
27796;SDS011;15177;50.844;4.412;2022-12-16T15:38:28;16.53;;;9.13;;
27796;SDS011;15177;50.844;4.412;2022-12-16T15:41:33;19.97;;;9.60;;
27796;SDS011;15177;50.844;4.412;2022-12-16T15:44:21;23.93;;;9.43;;
27796;SDS011;15177;50.844;4.412;2022-12-16T15:47:51;20.97;;;10.77;;
27796;SDS011;15177;50.844;4.412;2022-12-16T15:50:19;25.10;;;10.33;;
27796;SDS011;15177;50.844;4.412;2022-12-16T15:56:23;16.57;;;8.97;;
27796;SDS011;15177;50.844;4.412;2022-12-16T15:59:25;19.77;;;9.00;;
27796;SDS011;15177;50.844;4.412;2022-12-16T16:02:18;17.70;;;9.20;;
27796;SDS011;15177;50.844;4.412;2022-12-16T16:05:37;18.13;;;8.70;;
27796;SDS011;15177;50.844;4.412;2022-12-16T16:08:14;21.37;;;9.17;;
27796;SDS011;15177;50.844;4.412;2022-12-16T16:10:58;18.80;;;8.90;;
27796;SDS011;15177;50.844;4.412;2022-12-16T16:13:43;22.17;;;9.67;;
27796;SDS011;15177;50.844;4.412;2022-12-16T16:16:28;23.87;;;9.63;;
27796;SDS011;15177;50.844;4.412;2022-12-16T16:19:23;19.87;;;10.00;;
27796;SDS011;15177;50.844;4.412;2022-12-16T16:22:13;22.10;;;9.70;;
27796;SDS011;15177;50.844;4.412;2022-12-16T16:24:59;25.77;;;9.90;;
27796;SDS011;15177;50.844;4.412;2022-12-16T16:27:44;23.57;;;10.77;;
27796;SDS011;15177;50.844;4.412;2022-12-16T16:30:28;25.03;;;10.03;;
27796;SDS011;15177;50.844;4.412;2022-12-16T16:33:13;19.23;;;9.93;;
27796;SDS011;15177;50.844;4.412;2022-12-16T16:35:57;18.70;;;11.07;;
27796;SDS011;15177;50.844;4.412;2022-12-16T16:38:42;24.97;;;11.70;;
27796;SDS011;15177;50.844;4.412;2022-12-16T16:41:26;33.80;;;11.93;;
27796;SDS011;15177;50.844;4.412;2022-12-16T16:44:10;20.80;;;11.00;;
27796;SDS011;15177;50.844;4.412;2022-12-16T16:46:54;27.77;;;10.53;;
27796;SDS011;15177;50.844;4.412;2022-12-16T16:49:40;25.20;;;10.63;;
27796;SDS011;15177;50.844;4.412;2022-12-16T16:52:47;25.03;;;12.07;;
27796;SDS011;15177;50.844;4.412;2022-12-16T16:55:34;20.30;;;10.50;;
27796;SDS011;15177;50.844;4.412;2022-12-16T16:58:19;22.80;;;11.83;;
27796;SDS011;15177;50.844;4.412;2022-12-16T17:01:04;22.87;;;11.83;;
27796;SDS011;15177;50.844;4.412;2022-12-16T17:03:48;26.63;;;12.83;;
27796;SDS011;15177;50.844;4.412;2022-12-16T17:06:32;26.70;;;12.90;;
27796;SDS011;15177;50.844;4.412;2022-12-16T17:09:16;29.90;;;12.67;;
27796;SDS011;15177;50.844;4.412;2022-12-16T17:12:01;29.40;;;13.93;;
27796;SDS011;15177;50.844;4.412;2022-12-16T17:14:52;24.87;;;13.53;;
27796;SDS011;15177;50.844;4.412;2022-12-16T17:17:36;28.97;;;14.80;;
27796;SDS011;15177;50.844;4.412;2022-12-16T17:20:21;33.27;;;15.70;;
27796;SDS011;15177;50.844;4.412;2022-12-16T17:23:05;32.33;;;15.20;;
27796;SDS011;15177;50.844;4.412;2022-12-16T17:26:00;38.57;;;17.83;;
27796;SDS011;15177;50.844;4.412;2022-12-16T17:28:45;43.33;;;16.10;;
27796;SDS011;15177;50.844;4.412;2022-12-16T17:31:29;38.50;;;17.63;;
27796;SDS011;15177;50.844;4.412;2022-12-16T17:34:13;36.17;;;18.20;;
27796;SDS011;15177;50.844;4.412;2022-12-16T17:36:57;41.40;;;17.53;;
27796;SDS011;15177;50.844;4.412;2022-12-16T17:39:53;39.07;;;18.20;;
27796;SDS011;15177;50.844;4.412;2022-12-16T17:42:37;42.80;;;20.90;;
27796;SDS011;15177;50.844;4.412;2022-12-16T17:45:22;42.47;;;20.70;;
27796;SDS011;15177;50.844;4.412;2022-12-16T17:48:06;46.63;;;22.10;;
27796;SDS011;15177;50.844;4.412;2022-12-16T17:50:50;42.23;;;22.17;;
27796;SDS011;15177;50.844;4.412;2022-12-16T17:53:34;47.37;;;22.70;;
27796;SDS011;15177;50.844;4.412;2022-12-16T17:56:18;44.93;;;21.83;;
27796;SDS011;15177;50.844;4.412;2022-12-16T17:59:03;49.30;;;23.40;;
27796;SDS011;15177;50.844;4.412;2022-12-16T18:01:47;48.40;;;22.50;;
27796;SDS011;15177;50.844;4.412;2022-12-16T18:04:31;52.83;;;23.87;;
27796;SDS011;15177;50.844;4.412;2022-12-16T18:07:16;59.83;;;25.10;;
27796;SDS011;15177;50.844;4.412;2022-12-16T18:10:00;52.40;;;24.37;;
27796;SDS011;15177;50.844;4.412;2022-12-16T18:12:44;55.30;;;23.47;;
27796;SDS011;15177;50.844;4.412;2022-12-16T18:15:29;52.00;;;23.87;;
27796;SDS011;15177;50.844;4.412;2022-12-16T18:18:13;50.67;;;23.60;;
27796;SDS011;15177;50.844;4.412;2022-12-16T18:21:06;50.47;;;23.00;;
27796;SDS011;15177;50.844;4.412;2022-12-16T18:23:52;48.23;;;24.40;;
27796;SDS011;15177;50.844;4.412;2022-12-16T18:26:36;48.57;;;24.00;;
27796;SDS011;15177;50.844;4.412;2022-12-16T18:29:20;62.57;;;24.73;;